Terminal Aerodrome Forecast
Issued by NWS Riverton, WY

Home | Current Version | Previous Version | Text Only | Print | Product List | Glossary On
Versions: 1 2 3 4 5 6 7 8 9 10 11 12 13 14 15 16 17
000
FTUS45 KRIW 212336
TAFRIW
TAF
KRIW 212336Z 2200/2224 VRB05KT 2SM BR VCFG FEW005 BKN080
      TEMPO 2202/2206 1/2SM FZFG VV002
     FM220900 29010KT P6SM FEW090 SCT150
     FM222200 VRB06KT P6SM FEW060 SCT090=

USA.gov is the U.S. government's official web portal to all federal, state and local government web resources and services.